Time;durP1;ratioP1;P1;durP2;ratioP2;P2;SDS_P1;SDS_P2;PMS_P1;PMS_P2;Temp;Humidity;BMP_temperature;BMP_pressure;BME280_temperature;BME280_humidity;BME280_pressure;Samples;Min_cycle;Max_cycle;Signal;HPM_P1;HPM_P2
2023/05/28 00:00:44;;;;;;;27.20;11.20;;;;;;;11.46;89.57;101863.22;5089481;28;20036;-73
2023/05/28 00:03:10;;;;;;;22.77;9.35;;;;;;;11.45;89.87;101866.00;5095250;28;20065;-72
2023/05/28 00:05:35;;;;;;;22.48;10.27;;;;;;;11.41;89.95;101869.88;5073959;28;20030;-72
2023/05/28 00:08:00;;;;;;;23.85;10.27;;;;;;;11.36;90.43;101872.81;5080290;28;20031;-73
2023/05/28 00:10:27;;;;;;;25.75;10.40;;;;;;;11.34;90.45;101861.28;5098165;28;20107;-73
2023/05/28 00:12:52;;;;;;;24.40;10.82;;;;;;;11.29;90.77;101861.56;5092494;28;20404;-72
2023/05/28 00:15:17;;;;;;;26.60;10.52;;;;;;;11.27;90.55;101862.63;5099262;28;20062;-73
2023/05/28 00:17:43;;;;;;;25.17;10.07;;;;;;;11.26;90.74;101850.09;5097644;28;20027;-73
2023/05/28 00:20:08;;;;;;;26.10;11.10;;;;;;;11.19;90.87;101845.09;5075323;28;20391;-73
2023/05/28 00:22:37;;;;;;;24.73;9.70;;;;;;;11.15;90.84;101840.00;5081938;28;20089;-73
2023/05/28 00:25:03;;;;;;;25.73;11.05;;;;;;;11.12;90.69;101843.72;5084040;28;20018;-73
2023/05/28 00:27:28;;;;;;;24.83;11.88;;;;;;;11.08;91.18;101844.88;5062166;28;20112;-72
2023/05/28 00:29:54;;;;;;;28.33;9.93;;;;;;;11.06;91.30;101849.47;5080915;28;20100;-72
2023/05/28 00:32:19;;;;;;;26.40;10.55;;;;;;;11.01;91.81;101844.38;5094472;28;20024;-73
2023/05/28 00:34:44;;;;;;;26.77;11.43;;;;;;;10.98;91.97;101839.19;5093816;28;20066;-73
2023/05/28 00:37:10;;;;;;;24.05;9.80;;;;;;;10.99;92.15;101843.59;5095440;28;20092;-73
2023/05/28 00:39:35;;;;;;;24.90;10.80;;;;;;;10.94;92.01;101852.91;5070615;28;20459;-72
2023/05/28 00:42:04;;;;;;;28.23;10.68;;;;;;;10.91;91.91;101855.75;5073518;28;20024;-72
2023/05/28 00:44:33;;;;;;;22.60;10.40;;;;;;;10.86;91.44;101857.88;5088404;28;20141;-72
2023/05/28 00:46:59;;;;;;;26.58;10.70;;;;;;;10.79;91.74;101850.16;5093131;28;20297;-73
2023/05/28 00:49:25;;;;;;;22.75;10.00;;;;;;;10.76;91.92;101860.22;5075637;28;20035;-73
2023/05/28 00:51:51;;;;;;;22.80;10.68;;;;;;;10.71;91.95;101852.41;5097490;28;20032;-73
2023/05/28 00:54:17;;;;;;;23.80;10.35;;;;;;;10.65;92.11;101855.47;5064980;28;20027;-73
2023/05/28 00:56:43;;;;;;;26.83;10.13;;;;;;;10.65;92.63;101847.41;5085264;28;20044;-73
2023/05/28 00:59:10;;;;;;;23.60;10.07;;;;;;;10.63;92.81;101838.53;5098612;28;20020;-72
2023/05/28 01:01:36;;;;;;;25.45;10.80;;;;;;;10.61;92.85;101845.84;5080835;28;20491;-73
2023/05/28 01:04:02;;;;;;;25.23;10.73;;;;;;;10.59;93.14;101840.56;5082048;28;20043;-73
2023/05/28 01:06:29;;;;;;;26.35;10.48;;;;;;;10.57;93.19;101841.59;5065477;28;20364;-73
2023/05/28 01:08:55;;;;;;;22.85;10.57;;;;;;;10.54;93.37;101841.75;5086011;28;20437;-72
2023/05/28 01:11:21;;;;;;;25.90;12.85;;;;;;;10.56;93.26;101848.78;5087180;28;20031;-73
2023/05/28 01:13:47;;;;;;;26.50;10.65;;;;;;;10.59;93.40;101845.94;5068952;28;20117;-72
2023/05/28 01:16:13;;;;;;;25.10;11.10;;;;;;;10.60;94.02;101841.41;5084871;28;20039;-73
2023/05/28 01:18:39;;;;;;;24.02;11.18;;;;;;;10.61;93.89;101838.63;5085471;28;20036;-73
2023/05/28 01:21:06;;;;;;;27.35;10.52;;;;;;;10.62;94.14;101837.69;5070402;28;20040;-72
2023/05/28 01:23:44;;;;;;;21.95;9.88;;;;;;;10.64;92.97;101837.59;5087167;28;20024;-73
2023/05/28 01:26:14;;;;;;;26.63;10.70;;;;;;;10.61;93.71;101843.16;5084545;28;20084;-73
2023/05/28 01:28:44;;;;;;;27.20;11.90;;;;;;;10.59;93.51;101837.88;5084086;28;20031;-73
2023/05/28 01:31:10;;;;;;;22.88;10.20;;;;;;;10.57;94.05;101849.66;5066695;28;20020;-73
2023/05/28 01:33:36;;;;;;;25.40;10.85;;;;;;;10.53;93.76;101845.41;5069471;28;20119;-73
2023/05/28 01:36:05;;;;;;;25.05;10.68;;;;;;;10.51;93.64;101841.94;5085516;28;20031;-72
2023/05/28 01:38:33;;;;;;;25.17;11.38;;;;;;;10.47;94.08;101841.28;5085557;28;20448;-72
2023/05/28 01:41:00;;;;;;;25.38;11.63;;;;;;;10.44;94.07;101836.94;5066613;28;20019;-73
2023/05/28 01:43:26;;;;;;;23.42;10.98;;;;;;;10.43;94.65;101840.56;5086824;28;20032;-73
2023/05/28 01:45:51;;;;;;;23.30;10.93;;;;;;;10.44;94.41;101842.31;5064427;28;20187;-73
2023/05/28 01:48:17;;;;;;;26.63;11.73;;;;;;;10.44;94.65;101852.16;5083598;28;20115;-73
2023/05/28 01:50:43;;;;;;;27.60;11.57;;;;;;;10.41;94.44;101844.28;5071836;28;20114;-73
2023/05/28 01:53:08;;;;;;;29.77;11.73;;;;;;;10.44;94.48;101841.41;5089996;28;20032;-73
2023/05/28 01:55:33;;;;;;;30.23;11.48;;;;;;;10.42;94.26;101854.09;5085604;28;20037;-73
2023/05/28 01:57:59;;;;;;;23.92;11.07;;;;;;;10.42;94.17;101852.25;5070648;28;20032;-73
2023/05/28 02:00:24;;;;;;;26.67;10.20;;;;;;;10.45;95.29;101840.47;5087613;28;20114;-72
2023/05/28 02:02:49;;;;;;;27.20;12.27;;;;;;;10.45;95.10;101835.09;5091066;28;20394;-73
2023/05/28 02:05:15;;;;;;;25.20;11.93;;;;;;;10.44;95.43;101836.03;5084467;28;20132;-73
2023/05/28 02:07:41;;;;;;;25.85;11.40;;;;;;;10.43;95.66;101834.31;5085519;28;20127;-73
2023/05/28 02:10:07;;;;;;;24.85;11.18;;;;;;;10.42;96.22;101835.28;5088752;28;20094;-73
2023/05/28 02:12:32;;;;;;;23.67;10.55;;;;;;;10.41;96.07;101826.34;5085596;28;20024;-73
2023/05/28 02:14:58;;;;;;;26.52;11.23;;;;;;;10.39;95.98;101828.25;5066128;28;20037;-73
2023/05/28 02:17:24;;;;;;;25.92;10.82;;;;;;;10.40;96.49;101834.50;5066939;28;20039;-73
2023/05/28 02:19:49;;;;;;;26.52;13.02;;;;;;;10.38;96.42;101826.53;5086410;28;20117;-73
2023/05/28 02:22:14;;;;;;;28.02;12.23;;;;;;;10.38;96.41;101823.84;5091481;28;20023;-72
2023/05/28 02:24:41;;;;;;;24.88;10.93;;;;;;;10.37;95.71;101819.41;5101319;28;20429;-73
2023/05/28 02:27:07;;;;;;;23.17;11.15;;;;;;;10.35;96.23;101817.75;5096866;28;20019;-73
2023/05/28 02:29:33;;;;;;;25.58;11.85;;;;;;;10.35;96.51;101815.94;5093552;28;20035;-72
2023/05/28 02:32:01;;;;;;;27.10;11.43;;;;;;;10.31;96.25;101809.84;5082198;28;20234;-72
2023/05/28 02:34:28;;;;;;;24.90;10.95;;;;;;;10.33;95.71;101807.06;5090452;28;20028;-72
2023/05/28 02:36:54;;;;;;;28.30;12.73;;;;;;;10.31;97.20;101817.91;5093889;28;20112;-73
2023/05/28 02:39:19;;;;;;;23.15;11.23;;;;;;;10.29;97.48;101816.25;5105756;28;20027;-72
2023/05/28 02:41:44;;;;;;;24.15;10.52;;;;;;;10.25;97.15;101825.44;5100428;28;20027;-72
2023/05/28 02:44:09;;;;;;;25.27;10.88;;;;;;;10.21;96.73;101823.91;5099248;28;20016;-73
2023/05/28 02:46:35;;;;;;;23.40;11.18;;;;;;;10.18;96.48;101824.94;5094380;28;20024;-72
2023/05/28 02:49:00;;;;;;;26.05;10.82;;;;;;;10.17;95.65;101827.69;5096315;28;20036;-72
2023/05/28 02:51:25;;;;;;;23.55;10.63;;;;;;;10.14;96.09;101824.22;5080982;28;20023;-72
2023/05/28 02:53:50;;;;;;;25.20;9.88;;;;;;;10.15;95.20;101830.47;5087289;28;20104;-72
2023/05/28 02:56:16;;;;;;;26.60;11.80;;;;;;;10.10;95.87;101825.38;5102707;28;20395;-72
2023/05/28 02:58:41;;;;;;;22.80;11.00;;;;;;;10.11;95.70;101823.53;5084779;28;20038;-72
2023/05/28 03:01:06;;;;;;;27.77;11.82;;;;;;;10.09;95.81;101831.69;5081878;28;20048;-73
2023/05/28 03:03:32;;;;;;;28.75;12.50;;;;;;;10.05;96.00;101819.38;5080779;28;20020;-73
2023/05/28 03:05:57;;;;;;;30.58;11.68;;;;;;;10.02;96.74;101829.44;5097843;28;20020;-73
2023/05/28 03:08:22;;;;;;;27.17;12.00;;;;;;;10.03;96.24;101833.81;5101667;28;20139;-72
2023/05/28 03:10:48;;;;;;;27.65;11.52;;;;;;;10.01;96.76;101833.06;5082005;28;20460;-72
2023/05/28 03:13:13;;;;;;;27.88;12.40;;;;;;;10.01;96.99;101823.16;5079413;28;20040;-73
2023/05/28 03:15:38;;;;;;;25.67;10.90;;;;;;;10.00;96.44;101832.19;5079165;28;20024;-73
2023/05/28 03:18:04;;;;;;;26.42;11.05;;;;;;;9.96;96.04;101823.44;5081829;28;20110;-72
2023/05/28 03:20:30;;;;;;;29.67;12.02;;;;;;;9.93;96.66;101820.06;5097392;28;20067;-72
2023/05/28 03:22:56;;;;;;;23.13;10.80;;;;;;;9.92;97.13;101826.38;5080465;28;20047;-72
2023/05/28 03:25:22;;;;;;;25.33;11.13;;;;;;;9.91;97.04;101827.31;5098197;28;20023;-72
2023/05/28 03:27:47;;;;;;;23.90;10.23;;;;;;;9.89;97.08;101823.84;5092756;28;20505;-72
2023/05/28 03:30:14;;;;;;;25.25;10.60;;;;;;;9.88;96.92;101816.75;5094237;28;20031;-72
2023/05/28 03:32:39;;;;;;;25.02;10.93;;;;;;;9.88;97.24;101823.00;5087144;28;20084;-72
2023/05/28 03:35:05;;;;;;;24.45;10.80;;;;;;;9.83;97.38;101829.56;5095127;28;20027;-72
2023/05/28 03:37:31;;;;;;;29.25;10.82;;;;;;;9.82;97.36;101827.81;5099125;28;20100;-72
2023/05/28 03:39:56;;;;;;;24.17;10.32;;;;;;;9.82;97.49;101830.50;5072871;28;20376;-72
2023/05/28 03:42:21;;;;;;;25.23;10.90;;;;;;;9.80;97.08;101828.75;5097066;28;20035;-73
2023/05/28 03:44:47;;;;;;;23.80;10.95;;;;;;;9.82;96.87;101830.50;5095442;28;20042;-72
2023/05/28 03:47:12;;;;;;;23.63;10.85;;;;;;;9.80;96.78;101823.41;5096355;28;20501;-73
2023/05/28 03:49:38;;;;;;;24.65;10.07;;;;;;;9.78;97.31;101837.84;5102903;28;20380;-73
2023/05/28 03:52:03;;;;;;;24.25;11.23;;;;;;;9.75;97.46;101833.53;5101010;28;20142;-72
2023/05/28 03:54:28;;;;;;;24.30;9.93;;;;;;;9.77;97.93;101831.63;5095420;28;20036;-72
2023/05/28 03:56:54;;;;;;;24.40;10.60;;;;;;;9.77;97.63;101837.00;5092879;28;20044;-72
2023/05/28 03:59:19;;;;;;;26.25;10.93;;;;;;;9.77;97.76;101830.75;5095253;28;20023;-73
2023/05/28 04:01:45;;;;;;;23.33;10.93;;;;;;;9.78;97.50;101837.84;5089301;28;20433;-72
2023/05/28 04:04:10;;;;;;;24.77;8.82;;;;;;;9.77;97.32;101837.00;5096728;28;20020;-73
2023/05/28 04:06:36;;;;;;;24.25;10.50;;;;;;;9.78;98.30;101836.06;5102320;28;20024;-72
2023/05/28 04:09:01;;;;;;;23.42;10.50;;;;;;;9.80;98.80;101838.66;5099783;28;20039;-72
2023/05/28 04:11:29;;;;;;;23.00;10.40;;;;;;;9.78;98.00;101838.75;5082826;28;20032;-72
2023/05/28 04:13:55;;;;;;;25.40;9.90;;;;;;;9.74;98.46;101842.53;5101921;28;20118;-72
2023/05/28 04:16:22;;;;;;;23.90;10.15;;;;;;;9.74;98.32;101837.16;5083107;28;20497;-72
2023/05/28 04:18:49;;;;;;;24.90;9.85;;;;;;;9.75;99.46;101846.06;5075030;28;20019;-72
2023/05/28 04:21:14;;;;;;;23.90;9.75;;;;;;;9.77;99.67;101858.47;5102291;28;20036;-72
2023/05/28 04:23:39;;;;;;;28.10;10.43;;;;;;;9.80;100.00;101852.06;5099493;28;20039;-72
2023/05/28 04:26:09;;;;;;;20.75;9.43;;;;;;;9.79;98.57;101861.97;5078601;28;20023;-73
2023/05/28 04:28:36;;;;;;;25.98;10.48;;;;;;;9.80;99.41;101861.00;5092155;28;20150;-72
2023/05/28 04:31:02;;;;;;;24.10;10.57;;;;;;;9.82;98.30;101854.69;5080834;28;20097;-72
2023/05/28 04:33:30;;;;;;;24.45;9.65;;;;;;;9.86;98.03;101848.19;5074317;28;20032;-72
2023/05/28 04:35:57;;;;;;;27.45;10.90;;;;;;;9.89;98.75;101851.56;5071960;28;20031;-72
2023/05/28 04:38:23;;;;;;;25.13;10.90;;;;;;;9.94;98.69;101859.38;5098171;28;20497;-72
2023/05/28 04:40:49;;;;;;;26.25;10.68;;;;;;;9.93;99.01;101871.94;5090863;28;20103;-72
2023/05/28 04:43:15;;;;;;;24.25;10.07;;;;;;;9.97;98.66;101864.56;5082724;28;20034;-72
2023/05/28 04:45:41;;;;;;;25.40;10.88;;;;;;;10.00;99.29;101869.81;5084893;28;20066;-73
2023/05/28 04:48:07;;;;;;;27.17;10.98;;;;;;;10.06;98.97;101866.78;5100868;28;20051;-72
2023/05/28 04:50:32;;;;;;;29.45;10.93;;;;;;;10.08;99.88;101867.53;5101302;28;20540;-72
2023/05/28 04:52:58;;;;;;;24.52;10.48;;;;;;;10.12;99.21;101863.75;5100526;28;20024;-72
2023/05/28 04:55:24;;;;;;;28.38;10.60;;;;;;;10.15;100.00;101868.94;5093386;28;20063;-72
2023/05/28 04:57:49;;;;;;;23.30;11.32;;;;;;;10.19;100.00;101868.78;5074081;28;20020;-72
2023/05/28 05:00:15;;;;;;;21.98;10.38;;;;;;;10.22;100.00;101861.41;5094329;28;20063;-73
2023/05/28 05:02:43;;;;;;;24.67;10.55;;;;;;;10.25;100.00;101861.25;5101618;28;20028;-72
2023/05/28 05:05:09;;;;;;;25.50;11.32;;;;;;;10.32;100.00;101870.69;5105007;28;20532;-72
2023/05/28 05:07:36;;;;;;;22.85;10.02;;;;;;;10.35;100.00;101864.28;5100731;28;20032;-73
2023/05/28 05:10:02;;;;;;;26.33;11.52;;;;;;;10.42;100.00;101863.00;5095794;28;20020;-73
2023/05/28 05:12:30;;;;;;;24.77;9.95;;;;;;;10.48;100.00;101865.38;5100466;28;20393;-72
2023/05/28 05:14:55;;;;;;;26.23;10.93;;;;;;;10.55;100.00;101875.75;5093652;28;20034;-72
2023/05/28 05:17:20;;;;;;;25.02;11.13;;;;;;;10.61;100.00;101870.88;5102290;28;20102;-72
2023/05/28 05:19:46;;;;;;;27.88;11.02;;;;;;;10.68;100.00;101866.03;5073705;28;20016;-73
2023/05/28 05:22:11;;;;;;;29.58;10.93;;;;;;;10.75;100.00;101872.81;5100487;28;20466;-72
2023/05/28 05:24:36;;;;;;;25.95;11.25;;;;;;;10.83;100.00;101875.03;5101086;28;20059;-72
2023/05/28 05:27:02;;;;;;;25.23;10.95;;;;;;;10.90;100.00;101880.94;5083298;28;20067;-73
2023/05/28 05:29:27;;;;;;;26.42;10.65;;;;;;;10.96;100.00;101875.19;5073474;28;20078;-73
2023/05/28 05:31:52;;;;;;;26.83;10.70;;;;;;;11.02;100.00;101869.44;5091395;28;20618;-73
2023/05/28 05:34:18;;;;;;;24.92;11.30;;;;;;;11.10;100.00;101866.28;5097336;28;20037;-73
2023/05/28 05:36:43;;;;;;;26.92;11.20;;;;;;;11.16;100.00;101880.25;5102983;28;20092;-73
2023/05/28 05:39:08;;;;;;;24.73;10.40;;;;;;;11.26;100.00;101887.78;5097063;28;20517;-73
2023/05/28 05:41:34;;;;;;;27.52;11.10;;;;;;;11.34;100.00;101880.13;5096651;28;20023;-73
2023/05/28 05:43:59;;;;;;;26.90;11.52;;;;;;;11.37;100.00;101893.41;5100786;28;20480;-73
2023/05/28 05:46:24;;;;;;;25.67;11.20;;;;;;;11.46;100.00;101889.28;5103831;28;20074;-73
2023/05/28 05:48:50;;;;;;;24.10;10.07;;;;;;;11.51;100.00;101892.59;5073753;28;20047;-72
2023/05/28 05:51:18;;;;;;;26.38;9.65;;;;;;;11.60;100.00;101896.53;5099295;28;20081;-73
2023/05/28 05:53:44;;;;;;;25.50;10.90;;;;;;;11.66;100.00;101896.16;5082468;28;20525;-73
2023/05/28 05:56:10;;;;;;;25.33;10.68;;;;;;;11.72;100.00;101895.78;5082383;28;20044;-72
2023/05/28 05:58:35;;;;;;;24.75;10.75;;;;;;;11.81;100.00;101892.50;5091123;28;20027;-73
2023/05/28 06:01:01;;;;;;;25.00;11.30;;;;;;;11.91;100.00;101890.13;5082232;28;20020;-73
2023/05/28 06:03:27;;;;;;;25.85;10.45;;;;;;;12.00;100.00;101892.25;5080447;28;20020;-73
2023/05/28 06:05:53;;;;;;;25.52;11.07;;;;;;;12.12;100.00;101896.00;5100095;28;20031;-72
2023/05/28 06:08:18;;;;;;;30.55;11.25;;;;;;;12.24;100.00;101894.38;5091963;28;20028;-72
2023/05/28 06:10:43;;;;;;;24.58;9.60;;;;;;;12.33;100.00;101892.91;5097906;28;20032;-72
2023/05/28 06:13:09;;;;;;;24.10;11.07;;;;;;;12.40;100.00;101891.56;5104521;28;20474;-72
2023/05/28 06:15:34;;;;;;;24.13;10.20;;;;;;;12.51;100.00;101882.78;5077141;28;20027;-72
2023/05/28 06:18:00;;;;;;;25.70;11.48;;;;;;;12.61;100.00;101885.72;5094341;28;20475;-73
2023/05/28 06:20:27;;;;;;;25.27;11.35;;;;;;;12.69;100.00;101886.09;5095916;28;20387;-73
2023/05/28 06:22:52;;;;;;;22.63;10.45;;;;;;;12.77;100.00;101881.94;5103990;28;20102;-72
2023/05/28 06:25:18;;;;;;;26.80;10.40;;;;;;;12.86;100.00;101880.47;5105234;28;20066;-72
2023/05/28 06:27:43;;;;;;;31.27;11.63;;;;;;;12.96;100.00;101879.84;5100767;28;20032;-72
2023/05/28 06:30:10;;;;;;;24.70;9.85;;;;;;;13.03;100.00;101878.47;5100800;28;20016;-72
2023/05/28 06:32:35;;;;;;;24.58;10.80;;;;;;;13.09;100.00;101875.38;5097873;28;20020;-73
2023/05/28 06:35:01;;;;;;;26.90;10.25;;;;;;;13.19;97.36;101878.28;5097929;28;20085;-72
2023/05/28 06:37:26;;;;;;;27.52;10.57;;;;;;;13.27;98.22;101871.41;5099989;28;20077;-73
2023/05/28 06:39:52;;;;;;;24.23;10.35;;;;;;;13.37;99.02;101870.81;5081615;28;20031;-73
2023/05/28 06:42:18;;;;;;;25.40;11.75;;;;;;;13.45;99.65;101879.25;5090674;28;20455;-72
2023/05/28 06:44:43;;;;;;;26.27;10.60;;;;;;;13.56;96.37;101873.09;5081953;28;20098;-73
2023/05/28 06:47:09;;;;;;;24.45;9.40;;;;;;;13.62;93.98;101869.97;5096914;28;20020;-73
2023/05/28 06:49:36;;;;;;;24.25;9.05;;;;;;;13.69;96.01;101870.38;5071092;28;20094;-72
2023/05/28 06:52:02;;;;;;;22.90;8.70;;;;;;;13.79;94.15;101876.88;5101735;28;20027;-73
2023/05/28 06:54:27;;;;;;;23.33;8.40;;;;;;;13.85;90.23;101875.59;5081544;28;20133;-73
2023/05/28 06:56:53;;;;;;;22.63;8.48;;;;;;;13.97;93.21;101880.13;5098056;28;20711;-73
2023/05/28 06:59:18;;;;;;;23.88;9.93;;;;;;;14.09;92.88;101873.84;5093464;28;20016;-73
2023/05/28 07:01:43;;;;;;;26.88;9.65;;;;;;;14.15;91.94;101875.22;5095903;28;20028;-73
2023/05/28 07:04:08;;;;;;;25.33;9.85;;;;;;;14.27;90.92;101871.63;5098909;28;20031;-73
2023/05/28 07:06:34;;;;;;;27.33;10.02;;;;;;;14.36;92.09;101880.06;5091640;28;20031;-73
2023/05/28 07:08:59;;;;;;;22.58;8.73;;;;;;;14.44;90.11;101886.63;5078572;28;20451;-73
2023/05/28 07:11:26;;;;;;;25.98;10.27;;;;;;;14.54;90.34;101889.53;5074641;28;20035;-73
2023/05/28 07:13:53;;;;;;;25.75;9.38;;;;;;;14.60;92.03;101889.06;5072845;28;20031;-73
2023/05/28 07:16:19;;;;;;;24.88;9.60;;;;;;;14.71;89.46;101884.75;5082649;28;20050;-73
2023/05/28 07:18:44;;;;;;;24.45;7.53;;;;;;;14.75;86.02;101886.25;5070853;28;20024;-73
2023/05/28 07:21:09;;;;;;;24.88;10.27;;;;;;;14.84;88.25;101890.97;5094364;28;20024;-73
2023/05/28 07:23:35;;;;;;;23.33;8.65;;;;;;;14.85;86.05;101892.69;5072342;28;20039;-73
2023/05/28 07:26:00;;;;;;;25.90;10.55;;;;;;;14.98;89.30;101892.66;5086751;28;20147;-72
2023/05/28 07:28:25;;;;;;;29.42;9.77;;;;;;;15.01;90.36;101895.97;5101609;28;20055;-70
2023/05/28 07:30:51;;;;;;;25.67;8.48;;;;;;;15.02;88.10;101895.00;5099005;28;20047;-71
2023/05/28 07:33:16;;;;;;;21.10;7.55;;;;;;;15.02;81.84;101892.31;5075979;28;20032;-71
2023/05/28 07:35:41;;;;;;;24.48;8.70;;;;;;;15.12;85.07;101892.44;5100155;28;20039;-71
2023/05/28 07:38:07;;;;;;;29.70;8.98;;;;;;;15.24;83.95;101896.06;5093591;28;20028;-72
2023/05/28 07:40:33;;;;;;;18.90;6.63;;;;;;;15.29;84.97;101902.00;5070205;28;20991;-71
2023/05/28 07:42:58;;;;;;;22.40;8.98;;;;;;;15.37;88.74;101895.97;5092146;28;20026;-71
2023/05/28 07:45:23;;;;;;;23.75;7.18;;;;;;;15.36;83.79;101900.56;5074412;28;20035;-71
2023/05/28 07:47:48;;;;;;;23.90;8.13;;;;;;;15.51;84.92;101895.78;5077757;28;20073;-71
2023/05/28 07:50:14;;;;;;;22.30;7.40;;;;;;;15.53;83.66;101893.84;5077020;28;20127;-71
2023/05/28 07:52:40;;;;;;;26.98;7.70;;;;;;;15.61;82.85;101904.06;5082463;28;20032;-70
2023/05/28 07:55:06;;;;;;;28.52;8.43;;;;;;;15.73;82.64;101897.69;5079771;28;20117;-72
2023/05/28 07:57:32;;;;;;;22.83;7.75;;;;;;;15.70;80.78;101900.63;5084294;28;20036;-71
2023/05/28 07:59:57;;;;;;;23.48;7.43;;;;;;;15.74;81.19;101903.97;5090121;28;20027;-71
2023/05/28 08:02:22;;;;;;;20.33;7.65;;;;;;;15.78;83.22;101904.59;5092976;28;20403;-71
2023/05/28 08:04:49;;;;;;;22.92;8.00;;;;;;;15.80;83.59;101906.25;5079505;28;20065;-72
2023/05/28 08:07:14;;;;;;;24.05;8.63;;;;;;;15.92;84.97;101898.97;5097535;28;20035;-70
2023/05/28 08:09:41;;;;;;;24.10;8.68;;;;;;;15.99;84.85;101902.94;5089155;28;20541;-71
2023/05/28 08:12:07;;;;;;;23.92;9.52;;;;;;;16.07;85.21;101903.16;5081305;28;20020;-71
2023/05/28 08:14:32;;;;;;;27.30;9.63;;;;;;;16.14;82.33;101899.97;5077123;28;20072;-71
2023/05/28 08:16:57;;;;;;;26.85;10.52;;;;;;;16.21;84.82;101903.94;5104373;28;20023;-70
2023/05/28 08:19:23;;;;;;;25.60;9.73;;;;;;;16.28;84.38;101902.41;5081449;28;20054;-71
2023/05/28 08:21:48;;;;;;;26.33;10.43;;;;;;;16.35;84.56;101895.50;5083087;28;20063;-71
2023/05/28 08:24:13;;;;;;;23.65;9.32;;;;;;;16.44;84.38;101893.91;5104023;28;20051;-71
2023/05/28 08:26:39;;;;;;;23.35;8.32;;;;;;;16.50;82.64;101897.97;5097829;28;20127;-71
2023/05/28 08:29:04;;;;;;;24.98;9.63;;;;;;;16.58;84.43;101896.34;5106744;28;20512;-71
2023/05/28 08:31:31;;;;;;;27.13;10.25;;;;;;;16.56;80.31;101894.75;5097012;28;20464;-71
2023/05/28 08:33:57;;;;;;;25.33;10.38;;;;;;;16.62;81.10;101891.53;5105799;28;20055;-71
2023/05/28 08:36:22;;;;;;;23.77;8.95;;;;;;;16.70;82.41;101889.03;5075912;28;20020;-71
2023/05/28 08:38:47;;;;;;;25.73;8.30;;;;;;;16.78;81.38;101891.13;5074734;28;20088;-71
2023/05/28 08:41:13;;;;;;;25.05;8.48;;;;;;;16.81;82.63;101892.72;5095842;28;20072;-71
2023/05/28 08:43:38;;;;;;;25.10;9.13;;;;;;;16.85;80.99;101880.63;5100264;28;20078;-67
2023/05/28 08:46:05;;;;;;;27.05;9.93;;;;;;;16.87;78.73;101884.09;5086487;28;20026;-67
2023/05/28 08:48:33;;;;;;;23.48;9.68;;;;;;;16.97;81.53;101879.63;5091052;28;20335;-67
2023/05/28 08:50:58;;;;;;;23.52;9.05;;;;;;;17.02;79.51;101882.81;5075833;28;20024;-72
2023/05/28 08:53:29;;;;;;;26.83;8.95;;;;;;;17.06;79.98;101878.00;5099987;28;20035;-72
2023/05/28 08:55:55;;;;;;;25.73;9.02;;;;;;;17.16;79.58;101880.78;5098021;28;20407;-68
2023/05/28 08:58:21;;;;;;;20.75;8.73;;;;;;;17.19;80.69;101873.25;5097119;28;20301;-67
2023/05/28 09:00:49;;;;;;;20.95;7.82;;;;;;;17.27;82.04;101875.28;5088644;28;20069;-66
2023/05/28 09:03:15;;;;;;;23.08;8.73;;;;;;;17.30;80.76;101869.59;5109648;28;20127;-68
2023/05/28 09:05:40;;;;;;;20.77;8.27;;;;;;;17.36;78.02;101862.78;5106485;28;20103;-67
2023/05/28 09:08:08;;;;;;;22.45;7.47;;;;;;;17.42;78.79;101867.66;5096419;28;20024;-67
2023/05/28 09:10:38;;;;;;;21.80;7.60;;;;;;;17.49;79.98;101859.88;5077889;28;20043;-66
2023/05/28 09:13:07;;;;;;;22.92;8.38;;;;;;;17.59;78.56;101864.34;5099425;28;20066;-67
2023/05/28 09:15:37;;;;;;;21.53;7.30;;;;;;;17.73;81.50;101856.84;5080558;28;20027;-68
2023/05/28 09:18:04;;;;;;;21.30;5.97;;;;;;;17.80;76.72;101858.03;5094991;28;20042;-67
2023/05/28 09:20:29;;;;;;;20.23;6.13;;;;;;;17.79;74.42;101864.47;5079245;28;20486;-67
2023/05/28 09:23:02;;;;;;;19.98;5.43;;;;;;;17.90;72.40;101860.84;5089232;28;20525;-67
2023/05/28 09:25:28;;;;;;;18.67;5.30;;;;;;;17.97;71.67;101872.91;5103031;28;20028;-66
2023/05/28 09:27:55;;;;;;;18.48;6.03;;;;;;;18.00;72.74;101861.75;5071345;28;20039;-71
2023/05/28 09:30:22;;;;;;;19.73;6.18;;;;;;;18.04;71.82;101871.34;5064866;28;20066;-72
2023/05/28 09:32:55;;;;;;;18.48;5.95;;;;;;;18.12;70.07;101866.06;5073209;28;20114;-73
2023/05/28 09:35:21;;;;;;;23.13;6.72;;;;;;;18.15;68.62;101860.34;5087133;28;20064;-73
2023/05/28 09:37:46;;;;;;;22.52;5.82;;;;;;;18.22;71.11;101863.41;5088074;28;20123;-72
2023/05/28 09:40:11;;;;;;;20.40;6.25;;;;;;;18.32;70.22;101866.16;5086428;28;20113;-71
2023/05/28 09:42:43;;;;;;;22.40;6.43;;;;;;;18.34;70.58;101862.28;5085105;28;20024;-74
2023/05/28 09:45:09;;;;;;;17.42;5.80;;;;;;;18.41;68.57;101851.72;5086668;28;20024;-72
2023/05/28 09:47:42;;;;;;;22.02;6.85;;;;;;;18.51;72.33;101862.63;5065903;28;20399;-72
2023/05/28 09:50:08;;;;;;;18.02;5.18;;;;;;;18.56;68.79;101859.47;5068447;28;20023;-72
2023/05/28 09:52:34;;;;;;;19.50;5.03;;;;;;;18.59;66.87;101859.19;5087443;28;20042;-71
2023/05/28 09:55:04;;;;;;;20.90;6.45;;;;;;;18.67;66.51;101859.38;5087327;28;20359;-72
2023/05/28 09:57:29;;;;;;;;;;;;;;;18.66;69.88;101854.91;5067909;28;20029;-72
2023/05/28 09:59:55;;;;;;;25.10;6.10;;;;;;;18.77;66.24;101848.47;5090208;28;20371;-73
2023/05/28 10:02:34;;;;;;;19.50;5.72;;;;;;;18.81;66.76;101839.88;5083828;28;20024;-73
2023/05/28 10:05:02;;;;;;;20.80;6.35;;;;;;;18.90;67.40;101853.69;5084350;28;20099;-73
2023/05/28 10:07:28;;;;;;;16.13;5.30;;;;;;;19.00;63.69;101844.50;5085744;28;20024;-72
2023/05/28 10:09:55;;;;;;;16.08;4.65;;;;;;;19.03;63.18;101851.53;5065094;28;20162;-71
2023/05/28 10:12:24;;;;;;;17.67;5.25;;;;;;;19.12;62.67;101853.41;5065118;28;20035;-72
2023/05/28 10:14:50;;;;;;;16.70;4.80;;;;;;;19.16;60.65;101857.53;5068127;28;20027;-71
2023/05/28 10:17:17;;;;;;;16.98;5.13;;;;;;;19.27;62.37;101858.38;5070279;28;20032;-73
2023/05/28 10:19:45;;;;;;;17.35;4.55;;;;;;;19.31;60.13;101857.09;5085488;28;20051;-73
2023/05/28 10:22:12;;;;;;;20.95;6.00;;;;;;;19.38;61.60;101859.09;5083564;28;20074;-73
2023/05/28 10:24:38;;;;;;;21.13;5.45;;;;;;;19.44;61.41;101863.09;5087577;28;20024;-71
2023/05/28 10:27:07;;;;;;;22.08;5.38;;;;;;;19.49;59.31;101854.50;5064074;28;20495;-72
2023/05/28 10:29:41;;;;;;;17.83;5.22;;;;;;;19.49;58.94;101866.25;5087705;28;20036;-73
2023/05/28 10:32:06;;;;;;;19.45;6.07;;;;;;;19.57;58.19;101862.78;5066303;28;20051;-73
2023/05/28 10:34:33;;;;;;;19.75;6.15;;;;;;;19.56;58.16;101859.22;5065223;28;20024;-73
2023/05/28 10:37:06;;;;;;;22.80;5.53;;;;;;;19.69;61.33;101856.19;5083407;28;20472;-72
2023/05/28 10:39:47;;;;;;;19.00;5.32;;;;;;;19.70;60.95;101857.88;5081933;28;20023;-73
2023/05/28 10:42:18;;;;;;;20.88;5.75;;;;;;;19.74;55.28;101853.00;5085751;28;20500;-72
2023/05/28 10:44:51;;;;;;;21.38;5.50;;;;;;;19.82;60.03;101861.31;5064928;28;20430;-72
2023/05/28 10:47:18;;;;;;;15.52;4.95;;;;;;;19.82;60.15;101857.75;5087217;28;20364;-72
2023/05/28 10:50:00;;;;;;;19.25;5.43;;;;;;;19.79;61.40;101867.06;5091013;28;20036;-73
2023/05/28 10:52:26;;;;;;;20.20;5.45;;;;;;;19.77;60.92;101863.63;5083384;28;20399;-73
2023/05/28 10:54:54;;;;;;;15.82;5.10;;;;;;;19.74;60.73;101863.91;5099214;28;20408;-73
2023/05/28 10:57:20;;;;;;;21.63;6.05;;;;;;;19.74;60.10;101858.47;5072097;28;20028;-73
2023/05/28 10:59:52;;;;;;;16.38;5.22;;;;;;;19.71;61.17;101869.66;5071051;28;20490;-72
2023/05/28 11:02:25;;;;;;;16.88;4.90;;;;;;;19.74;59.29;101870.22;5084558;28;20024;-72
2023/05/28 11:05:02;;;;;;;17.52;5.07;;;;;;;19.78;60.80;101865.38;5088970;28;20055;-72
2023/05/28 11:07:30;;;;;;;18.52;4.88;;;;;;;19.76;58.42;101867.34;5084774;28;20081;-72